Time;durP1;ratioP1;P1;durP2;ratioP2;P2;SDS_P1;SDS_P2;PMS_P1;PMS_P2;Temp;Humidity;BMP_temperature;BMP_pressure;BME280_temperature;BME280_humidity;BME280_pressure;Samples;Min_cycle;Max_cycle;Signal;HPM_P1;HPM_P2
2024/04/19 00:02:08;;;;;;;;;;;27.40;54.30;;;;;;5420306;26;20742;-42
2024/04/19 00:04:34;;;;;;;;;;;27.40;54.30;;;;;;5426095;26;19936;-40
2024/04/19 00:07:00;;;;;;;;;;;27.40;54.30;;;;;;5394833;26;19975;-41
2024/04/19 00:09:25;;;;;;;;;;;27.40;54.30;;;;;;5425319;26;19944;-42
2024/04/19 00:11:52;;;;;;;;;;;27.30;54.30;;;;;;5394767;26;20273;-40
2024/04/19 00:14:17;;;;;;;;;;;27.30;54.40;;;;;;5425369;26;19945;-41
2024/04/19 00:16:44;;;;;;;;;;;27.30;54.50;;;;;;5425482;26;19929;-40
2024/04/19 00:19:09;;;;;;;;;;;27.30;54.50;;;;;;5424706;26;19929;-40
2024/04/19 00:21:35;;;;;;;;;;;27.30;54.60;;;;;;5425261;26;20265;-40
2024/04/19 00:24:01;;;;;;;;;;;27.30;55.10;;;;;;5425663;26;19937;-43
2024/04/19 00:26:27;;;;;;;;;;;27.30;54.40;;;;;;5425048;26;19936;-41
2024/04/19 00:28:53;;;;;;;;;;;27.30;54.40;;;;;;5424885;26;19965;-41
2024/04/19 00:31:19;;;;;;;;;;;27.30;54.40;;;;;;5424160;26;19929;-43
2024/04/19 00:33:45;;;;;;;;;;;27.30;54.40;;;;;;5425776;26;19937;-42
2024/04/19 00:36:11;;;;;;;;;;;27.30;54.40;;;;;;5424347;26;19929;-41
2024/04/19 00:38:36;;;;;;;;;;;27.30;54.40;;;;;;5418643;26;19929;-41
2024/04/19 00:41:02;;;;;;;;;;;27.20;54.30;;;;;;5425438;26;19933;-40
2024/04/19 00:43:28;;;;;;;;;;;27.20;54.30;;;;;;5419707;26;19929;-42
2024/04/19 00:45:55;;;;;;;;;;;27.20;54.20;;;;;;5425551;26;19936;-42
2024/04/19 00:48:21;;;;;;;;;;;27.20;54.40;;;;;;5424354;26;19937;-44
2024/04/19 00:50:51;;;;;;;;;;;27.20;54.40;;;;;;5425372;26;19929;-40
2024/04/19 00:53:19;;;;;;;;;;;27.20;54.60;;;;;;5424889;26;19929;-44
2024/04/19 00:55:45;;;;;;;;;;;27.20;54.60;;;;;;5425025;26;19929;-43
2024/04/19 00:58:11;;;;;;;;;;;27.10;54.70;;;;;;5424310;26;19936;-40
2024/04/19 01:00:37;;;;;;;;;;;27.10;54.70;;;;;;5424584;26;19948;-40
2024/04/19 01:03:03;;;;;;;;;;;27.10;54.70;;;;;;5424743;26;19936;-41
2024/04/19 01:05:29;;;;;;;;;;;27.10;54.70;;;;;;5424426;26;19940;-44
2024/04/19 01:07:55;;;;;;;;;;;27.10;54.70;;;;;;5425041;26;20013;-39
2024/04/19 01:10:21;;;;;;;;;;;27.10;54.70;;;;;;5424571;26;19929;-41
2024/04/19 01:12:47;;;;;;;;;;;27.00;54.70;;;;;;5425120;26;19929;-40
2024/04/19 01:15:16;;;;;;;;;;;27.00;54.80;;;;;;5423908;26;19929;-39
2024/04/19 01:17:42;;;;;;;;;;;27.00;54.80;;;;;;5411991;26;19935;-41
2024/04/19 01:20:08;;;;;;;;;;;27.00;54.80;;;;;;5424299;26;19929;-39
2024/04/19 01:22:34;;;;;;;;;;;27.00;54.80;;;;;;5424881;26;20377;-46
2024/04/19 01:25:00;;;;;;;;;;;27.00;54.80;;;;;;5424760;26;19994;-42
2024/04/19 01:27:26;;;;;;;;;;;27.00;54.70;;;;;;5424532;26;20733;-41
2024/04/19 01:29:52;;;;;;;;;;;26.90;54.70;;;;;;5424039;26;19943;-40
2024/04/19 01:32:18;;;;;;;;;;;26.90;54.70;;;;;;5415782;26;19998;-44
2024/04/19 01:34:44;;;;;;;;;;;26.90;54.60;;;;;;5424279;26;19972;-43
2024/04/19 01:37:11;;;;;;;;;;;26.90;54.60;;;;;;5423711;26;19944;-42
2024/04/19 01:39:37;;;;;;;;;;;26.90;54.60;;;;;;5393019;26;19929;-41
2024/04/19 01:42:05;;;;;;;;;;;26.90;54.70;;;;;;5423827;26;19964;-41
2024/04/19 01:44:31;;;;;;;;;;;26.80;54.70;;;;;;5423706;26;19953;-45
2024/04/19 01:46:57;;;;;;;;;;;26.80;54.70;;;;;;5422696;26;19937;-43
2024/04/19 01:49:23;;;;;;;;;;;26.80;54.70;;;;;;5392256;26;19929;-42
2024/04/19 01:51:49;;;;;;;;;;;26.80;54.70;;;;;;5380016;26;19933;-41
2024/04/19 01:54:15;;;;;;;;;;;26.80;54.70;;;;;;5423435;26;19929;-43
2024/04/19 01:56:42;;;;;;;;;;;26.80;54.60;;;;;;5420013;26;19929;-40
2024/04/19 01:59:07;;;;;;;;;;;26.80;54.60;;;;;;5423225;26;19936;-41
2024/04/19 02:01:33;;;;;;;;;;;26.70;54.50;;;;;;5423346;26;19929;-41
2024/04/19 02:03:59;;;;;;;;;;;26.70;54.40;;;;;;5418264;26;20067;-40
2024/04/19 02:06:25;;;;;;;;;;;26.70;54.40;;;;;;5423558;26;19937;-40
2024/04/19 02:08:51;;;;;;;;;;;26.70;54.30;;;;;;5423514;26;19979;-40
2024/04/19 02:11:17;;;;;;;;;;;26.70;54.30;;;;;;5421297;26;19936;-40
2024/04/19 02:13:44;;;;;;;;;;;26.70;54.20;;;;;;5423534;26;20661;-40
2024/04/19 02:16:10;;;;;;;;;;;26.70;54.30;;;;;;5422599;26;19929;-41
2024/04/19 02:18:36;;;;;;;;;;;26.60;54.10;;;;;;5392140;26;19936;-40
2024/04/19 02:21:05;;;;;;;;;;;26.60;54.20;;;;;;5423310;26;19936;-40
2024/04/19 02:23:37;;;;;;;;;;;26.60;54.20;;;;;;5423518;26;19936;-40
2024/04/19 02:26:06;;;;;;;;;;;26.60;54.20;;;;;;5423441;26;19936;-43
2024/04/19 02:31:17;;;;;;;;;;;26.60;54.30;;;;;;5422629;26;19936;-40
2024/04/19 02:33:46;;;;;;;;;;;26.50;54.40;;;;;;5422255;26;19929;-40
2024/04/19 02:36:12;;;;;;;;;;;26.50;54.40;;;;;;5420807;26;19946;-40
2024/04/19 02:38:38;;;;;;;;;;;26.50;54.40;;;;;;5423266;26;19929;-40
2024/04/19 02:41:04;;;;;;;;;;;26.50;54.30;;;;;;5423317;26;19936;-42
2024/04/19 02:43:30;;;;;;;;;;;26.50;54.20;;;;;;5415276;26;19929;-41
2024/04/19 02:45:56;;;;;;;;;;;26.50;54.20;;;;;;5422607;26;19975;-41
2024/04/19 02:48:22;;;;;;;;;;;26.50;54.30;;;;;;5422487;26;19929;-44
2024/04/19 02:50:49;;;;;;;;;;;26.50;54.20;;;;;;5422904;26;19936;-41
2024/04/19 02:53:15;;;;;;;;;;;26.50;54.30;;;;;;5422407;26;19936;-42
2024/04/19 02:55:41;;;;;;;;;;;26.40;54.10;;;;;;5422910;26;19961;-41
2024/04/19 02:58:07;;;;;;;;;;;26.40;54.20;;;;;;5423411;26;19936;-41
2024/04/19 03:00:33;;;;;;;;;;;26.40;54.10;;;;;;5424459;26;20859;-42
2024/04/19 03:02:59;;;;;;;;;;;26.40;54.20;;;;;;5425725;26;19929;-43
2024/04/19 03:05:25;;;;;;;;;;;26.40;54.10;;;;;;5425843;26;19941;-42
2024/04/19 03:07:51;;;;;;;;;;;26.30;54.20;;;;;;5426596;26;19945;-45
2024/04/19 03:10:17;;;;;;;;;;;26.30;54.20;;;;;;5425243;26;19935;-43
2024/04/19 03:12:42;;;;;;;;;;;26.30;54.30;;;;;;5426420;26;19936;-47
2024/04/19 03:15:08;;;;;;;;;;;26.30;54.30;;;;;;5423799;26;19935;-42
2024/04/19 03:17:34;;;;;;;;;;;26.30;54.30;;;;;;5428486;26;19929;-42
2024/04/19 03:20:00;;;;;;;;;;;26.30;54.30;;;;;;5426350;26;19929;-42
2024/04/19 03:22:26;;;;;;;;;;;26.30;54.30;;;;;;5426097;26;23128;-43
2024/04/19 03:24:52;;;;;;;;;;;26.20;54.10;;;;;;5426377;26;19929;-43
2024/04/19 03:27:18;;;;;;;;;;;26.20;54.10;;;;;;5425930;26;19940;-41
2024/04/19 03:29:48;;;;;;;;;;;26.20;54.10;;;;;;5425598;26;19929;-42
2024/04/19 03:32:13;;;;;;;;;;;26.20;54.00;;;;;;5425193;26;19933;-41
2024/04/19 03:34:41;;;;;;;;;;;26.20;54.10;;;;;;5425317;26;20445;-41
2024/04/19 03:37:07;;;;;;;;;;;26.20;54.10;;;;;;5425634;26;19929;-41
2024/04/19 03:39:33;;;;;;;;;;;26.10;53.90;;;;;;5424822;26;19936;-41
2024/04/19 03:41:59;;;;;;;;;;;26.10;53.90;;;;;;5425373;26;19937;-41
2024/04/19 03:47:09;;;;;;;;;;;26.10;53.90;;;;;;5426008;26;19936;-41
2024/04/19 03:49:35;;;;;;;;;;;26.10;53.90;;;;;;5426280;26;19928;-41
2024/04/19 03:52:01;;;;;;;;;;;26.10;53.90;;;;;;5426012;26;19929;-41
2024/04/19 03:54:27;;;;;;;;;;;26.10;53.90;;;;;;5418855;26;19947;-42
2024/04/19 03:56:53;;;;;;;;;;;26.00;53.80;;;;;;5426030;26;20023;-43
2024/04/19 03:59:19;;;;;;;;;;;26.00;53.80;;;;;;5424891;26;19935;-41
2024/04/19 04:01:47;;;;;;;;;;;26.00;53.80;;;;;;5425287;26;19929;-41
2024/04/19 04:04:13;;;;;;;;;;;26.00;53.70;;;;;;5424624;26;19960;-42
2024/04/19 04:06:38;;;;;;;;;;;26.00;53.80;;;;;;5425800;26;20360;-43
2024/04/19 04:09:04;;;;;;;;;;;26.00;53.70;;;;;;5425661;26;20266;-44
2024/04/19 04:11:30;;;;;;;;;;;25.90;53.60;;;;;;5424065;26;19940;-41
2024/04/19 04:13:56;;;;;;;;;;;25.90;53.70;;;;;;5426011;26;20010;-41
2024/04/19 04:16:22;;;;;;;;;;;25.90;53.70;;;;;;5423496;26;19936;-41
2024/04/19 04:18:48;;;;;;;;;;;25.90;53.70;;;;;;5425388;26;19944;-41
2024/04/19 04:21:14;;;;;;;;;;;25.90;53.80;;;;;;5423141;26;19930;-41
2024/04/19 04:23:42;;;;;;;;;;;25.80;53.80;;;;;;5411026;26;20500;-41
2024/04/19 04:26:08;;;;;;;;;;;25.80;53.80;;;;;;5425064;26;19929;-42
2024/04/19 04:28:33;;;;;;;;;;;25.80;53.80;;;;;;5417569;26;19936;-42
2024/04/19 04:30:59;;;;;;;;;;;25.80;53.80;;;;;;5405280;26;19935;-42
2024/04/19 04:33:25;;;;;;;;;;;25.80;53.70;;;;;;5401196;26;20330;-41
2024/04/19 04:35:51;;;;;;;;;;;25.80;53.70;;;;;;5404211;26;19953;-41
2024/04/19 04:38:17;;;;;;;;;;;25.80;53.70;;;;;;5403891;26;23110;-42
2024/04/19 04:40:43;;;;;;;;;;;25.80;53.70;;;;;;5406528;26;19930;-41
2024/04/19 04:43:09;;;;;;;;;;;25.80;53.80;;;;;;5401956;26;19937;-41
2024/04/19 04:45:35;;;;;;;;;;;25.70;53.70;;;;;;5404124;26;19936;-41
2024/04/19 04:48:00;;;;;;;;;;;25.70;53.70;;;;;;5404048;26;19941;-41
2024/04/19 04:50:26;;;;;;;;;;;25.70;53.70;;;;;;5401745;26;19937;-42
2024/04/19 04:52:53;;;;;;;;;;;25.70;53.70;;;;;;5400486;26;20376;-41
2024/04/19 04:55:20;;;;;;;;;;;25.70;53.80;;;;;;5399898;26;19970;-42
2024/04/19 04:57:45;;;;;;;;;;;25.70;53.70;;;;;;5406359;26;19930;-41
2024/04/19 05:00:12;;;;;;;;;;;25.60;53.70;;;;;;5424321;26;19940;-42
2024/04/19 05:02:38;;;;;;;;;;;25.60;53.70;;;;;;5424647;26;19929;-41
2024/04/19 05:05:04;;;;;;;;;;;25.70;53.90;;;;;;5424979;26;20768;-41
2024/04/19 05:07:30;;;;;;;;;;;25.60;53.70;;;;;;5424641;26;19929;-41
2024/04/19 05:09:56;;;;;;;;;;;25.60;53.70;;;;;;5424835;26;19929;-42
2024/04/19 05:12:22;;;;;;;;;;;25.60;53.70;;;;;;5424203;26;19929;-44
2024/04/19 05:14:48;;;;;;;;;;;25.60;53.70;;;;;;5424339;26;19980;-41
2024/04/19 05:17:14;;;;;;;;;;;25.60;53.70;;;;;;5424483;26;20377;-43
2024/04/19 05:19:39;;;;;;;;;;;25.60;53.70;;;;;;5411874;26;19928;-41
2024/04/19 05:22:05;;;;;;;;;;;25.50;53.70;;;;;;5424341;26;19929;-41
2024/04/19 05:24:31;;;;;;;;;;;25.50;53.70;;;;;;5424320;26;20373;-41
2024/04/19 05:26:57;;;;;;;;;;;25.50;53.70;;;;;;5424871;26;20023;-42
2024/04/19 05:29:26;;;;;;;;;;;25.50;53.70;;;;;;5423941;26;19961;-41
2024/04/19 05:31:55;;;;;;;;;;;25.50;53.70;;;;;;5423172;26;19957;-41
2024/04/19 05:34:20;;;;;;;;;;;25.50;53.80;;;;;;5423761;26;19929;-41
2024/04/19 05:36:46;;;;;;;;;;;25.40;53.70;;;;;;5424369;26;19952;-41
2024/04/19 05:39:12;;;;;;;;;;;25.40;53.70;;;;;;5424071;26;20485;-41
2024/04/19 05:41:38;;;;;;;;;;;25.40;53.80;;;;;;5424222;26;19929;-41
2024/04/19 05:44:04;;;;;;;;;;;25.40;53.80;;;;;;5424183;26;19936;-39
2024/04/19 05:46:31;;;;;;;;;;;25.40;53.80;;;;;;5423724;26;19967;-41
2024/04/19 05:48:57;;;;;;;;;;;25.40;53.80;;;;;;5424361;26;19975;-42
2024/04/19 05:51:23;;;;;;;;;;;25.40;53.80;;;;;;5418307;26;19942;-41
2024/04/19 05:53:48;;;;;;;;;;;25.40;53.80;;;;;;5423554;26;19929;-41
2024/04/19 05:56:14;;;;;;;;;;;25.40;53.80;;;;;;5423580;26;19935;-41
2024/04/19 05:58:40;;;;;;;;;;;25.30;53.70;;;;;;5424060;26;19975;-41
2024/04/19 06:01:06;;;;;;;;;;;25.30;53.70;;;;;;5423618;26;19929;-41
2024/04/19 06:03:32;;;;;;;;;;;25.30;53.70;;;;;;5420561;26;19937;-42
2024/04/19 06:05:58;;;;;;;;;;;25.30;53.80;;;;;;5402731;26;19983;-42
2024/04/19 06:08:24;;;;;;;;;;;25.30;53.80;;;;;;5400517;26;20673;-42
2024/04/19 06:10:49;;;;;;;;;;;25.30;53.80;;;;;;5395801;26;19937;-41
2024/04/19 06:13:15;;;;;;;;;;;25.30;53.80;;;;;;5401358;26;19929;-41
2024/04/19 06:15:42;;;;;;;;;;;25.20;53.80;;;;;;5401241;26;19937;-41
2024/04/19 06:18:09;;;;;;;;;;;25.20;53.80;;;;;;5403956;26;19944;-41
2024/04/19 06:20:36;;;;;;;;;;;25.20;53.80;;;;;;5370990;26;19940;-41
2024/04/19 06:23:03;;;;;;;;;;;25.20;53.80;;;;;;5397882;26;19939;-42
2024/04/19 06:25:29;;;;;;;;;;;25.20;53.80;;;;;;5402881;26;19943;-41
2024/04/19 06:27:54;;;;;;;;;;;25.20;53.90;;;;;;5400856;26;19930;-43
2024/04/19 06:30:20;;;;;;;;;;;25.20;53.90;;;;;;5399303;26;19929;-43
2024/04/19 06:32:46;;;;;;;;;;;25.20;53.90;;;;;;5398868;26;19941;-43
2024/04/19 06:35:15;;;;;;;;;;;25.20;54.40;;;;;;5421474;26;20253;-45
2024/04/19 06:37:40;;;;;;;;;;;25.20;53.90;;;;;;5414631;26;19929;-45
2024/04/19 06:40:07;;;;;;;;;;;25.20;53.90;;;;;;5426837;26;19936;-45
2024/04/19 06:42:33;;;;;;;;;;;25.10;53.90;;;;;;5425969;26;19948;-42
2024/04/19 06:44:59;;;;;;;;;;;25.10;53.90;;;;;;5426137;26;19933;-48
2024/04/19 06:47:25;;;;;;;;;;;25.10;53.80;;;;;;5426563;26;19929;-42
2024/04/19 06:49:51;;;;;;;;;;;25.10;53.90;;;;;;5426841;26;19929;-46
2024/04/19 06:52:17;;;;;;;;;;;25.10;53.90;;;;;;5426222;26;19936;-42
2024/04/19 06:54:42;;;;;;;;;;;25.10;53.90;;;;;;5425922;26;19929;-45
2024/04/19 06:57:08;;;;;;;;;;;25.10;53.90;;;;;;5426255;26;19936;-41
2024/04/19 06:59:34;;;;;;;;;;;25.00;53.90;;;;;;5426356;26;19937;-42
2024/04/19 07:02:00;;;;;;;;;;;25.00;53.90;;;;;;5426009;26;19936;-43
2024/04/19 07:04:26;;;;;;;;;;;25.00;53.90;;;;;;5425844;26;19941;-46
2024/04/19 07:06:52;;;;;;;;;;;25.00;53.90;;;;;;5426856;26;19937;-42
2024/04/19 07:09:18;;;;;;;;;;;25.00;53.90;;;;;;5426373;26;19975;-43
2024/04/19 07:11:46;;;;;;;;;;;25.00;53.90;;;;;;5426496;26;19936;-42
2024/04/19 07:14:12;;;;;;;;;;;25.00;54.00;;;;;;5425738;26;19933;-42
2024/04/19 07:16:38;;;;;;;;;;;25.00;54.00;;;;;;5426162;26;19975;-41
2024/04/19 07:19:04;;;;;;;;;;;25.00;54.00;;;;;;5389175;26;19930;-44
2024/04/19 07:21:30;;;;;;;;;;;25.00;54.00;;;;;;5425762;26;19937;-42
2024/04/19 07:23:56;;;;;;;;;;;24.90;54.00;;;;;;5426531;26;19929;-42
2024/04/19 07:26:21;;;;;;;;;;;24.90;54.00;;;;;;5425357;26;19975;-43
2024/04/19 07:28:47;;;;;;;;;;;24.90;54.00;;;;;;5426796;26;19929;-43
2024/04/19 07:31:14;;;;;;;;;;;24.90;54.00;;;;;;5425692;26;20328;-41
2024/04/19 07:33:39;;;;;;;;;;;24.90;54.00;;;;;;5426060;26;19935;-45
2024/04/19 07:36:05;;;;;;;;;;;24.90;54.00;;;;;;5426617;26;20362;-39
2024/04/19 07:38:31;;;;;;;;;;;24.90;54.00;;;;;;5425948;26;20378;-41
2024/04/19 07:41:03;;;;;;;;;;;24.90;54.10;;;;;;5425687;26;19928;-43
2024/04/19 07:43:29;;;;;;;;;;;24.90;54.10;;;;;;5425356;26;19945;-42
2024/04/19 07:45:55;;;;;;;;;;;24.80;54.00;;;;;;5423933;26;20004;-42
2024/04/19 07:48:21;;;;;;;;;;;24.80;54.10;;;;;;5426051;26;19929;-41
2024/04/19 07:50:47;;;;;;;;;;;24.80;54.10;;;;;;5426058;26;19933;-42
2024/04/19 07:53:18;;;;;;;;;;;24.80;54.10;;;;;;5425547;26;19929;-47
2024/04/19 07:55:44;;;;;;;;;;;24.80;54.10;;;;;;5413556;26;19929;-46
2024/04/19 07:58:10;;;;;;;;;;;24.80;54.10;;;;;;5425118;26;19933;-41
2024/04/19 08:00:36;;;;;;;;;;;24.80;54.10;;;;;;5424339;26;19982;-46
2024/04/19 08:03:03;;;;;;;;;;;24.80;54.10;;;;;;5425016;26;19929;-42
2024/04/19 08:05:29;;;;;;;;;;;24.80;54.20;;;;;;5424607;26;19929;-41
2024/04/19 08:07:56;;;;;;;;;;;24.80;54.20;;;;;;5425448;26;19929;-41
2024/04/19 08:10:24;;;;;;;;;;;24.80;54.20;;;;;;5424422;26;20361;-43
2024/04/19 08:12:53;;;;;;;;;;;24.70;54.20;;;;;;5425700;26;19929;-45
2024/04/19 08:15:19;;;;;;;;;;;24.70;54.20;;;;;;5424836;26;19929;-43
2024/04/19 08:17:45;;;;;;;;;;;24.70;54.20;;;;;;5425385;26;19936;-43
2024/04/19 08:20:10;;;;;;;;;;;24.70;54.20;;;;;;5425084;26;20502;-41
2024/04/19 08:22:36;;;;;;;;;;;24.70;54.20;;;;;;5411604;26;19928;-41
2024/04/19 08:25:02;;;;;;;;;;;24.70;54.20;;;;;;5394043;26;19929;-43
2024/04/19 08:27:28;;;;;;;;;;;24.70;54.30;;;;;;5425156;26;20414;-43
2024/04/19 08:29:54;;;;;;;;;;;24.70;54.30;;;;;;5425400;26;19952;-41
2024/04/19 08:32:20;;;;;;;;;;;24.70;54.30;;;;;;5423692;26;19945;-41
2024/04/19 08:34:58;;;;;;;;;;;24.60;54.30;;;;;;5422378;26;20450;-41
2024/04/19 08:37:25;;;;;;;;;;;24.60;54.30;;;;;;5425050;26;19945;-42
2024/04/19 08:39:51;;;;;;;;;;;24.60;54.30;;;;;;5424898;26;19936;-41
2024/04/19 08:42:17;;;;;;;;;;;24.60;54.30;;;;;;5392861;26;19928;-42
2024/04/19 08:44:44;;;;;;;;;;;24.60;54.30;;;;;;5393750;26;19936;-41
2024/04/19 08:47:13;;;;;;;;;;;24.60;54.30;;;;;;5424628;26;19953;-43
2024/04/19 08:49:40;;;;;;;;;;;24.60;54.30;;;;;;5392001;26;19941;-42
2024/04/19 08:52:07;;;;;;;;;;;24.60;54.30;;;;;;5424886;26;19929;-42
2024/04/19 08:54:33;;;;;;;;;;;24.60;54.30;;;;;;5393798;26;20046;-41
2024/04/19 08:56:59;;;;;;;;;;;24.60;54.40;;;;;;5363892;26;20003;-41
2024/04/19 08:59:25;;;;;;;;;;;24.60;54.40;;;;;;5391687;26;19945;-38
2024/04/19 09:01:51;;;;;;;;;;;24.50;54.40;;;;;;5382558;26;19937;-42
2024/04/19 09:04:17;;;;;;;;;;;24.50;54.40;;;;;;5420510;26;19977;-42
2024/04/19 09:06:42;;;;;;;;;;;24.50;54.40;;;;;;5424593;26;19929;-40
2024/04/19 09:09:08;;;;;;;;;;;24.50;54.40;;;;;;5424352;26;19929;-39
2024/04/19 09:11:37;;;;;;;;;;;24.50;54.40;;;;;;5424104;26;19933;-40
2024/04/19 09:14:03;;;;;;;;;;;24.50;54.40;;;;;;5424511;26;19940;-39
2024/04/19 09:16:31;;;;;;;;;;;24.50;54.40;;;;;;5423578;26;19929;-40
2024/04/19 09:18:57;;;;;;;;;;;24.50;54.40;;;;;;5424733;26;19936;-40
2024/04/19 09:21:23;;;;;;;;;;;24.50;54.40;;;;;;5424356;26;19936;-40
2024/04/19 09:23:48;;;;;;;;;;;24.50;54.50;;;;;;5424576;26;19953;-40
2024/04/19 09:26:16;;;;;;;;;;;24.50;54.50;;;;;;5424018;26;19929;-39
2024/04/19 09:28:44;;;;;;;;;;;24.40;54.40;;;;;;5403588;26;19937;-40
2024/04/19 09:31:10;;;;;;;;;;;24.40;54.50;;;;;;5365909;26;19949;-40
2024/04/19 09:33:38;;;;;;;;;;;24.40;54.50;;;;;;5398293;26;19937;-40
2024/04/19 09:36:03;;;;;;;;;;;24.40;54.50;;;;;;5390825;26;19975;-41
2024/04/19 09:38:29;;;;;;;;;;;24.40;54.50;;;;;;5384235;26;19949;-42
2024/04/19 09:40:55;;;;;;;;;;;24.40;54.60;;;;;;5390787;26;19950;-41
2024/04/19 09:43:22;;;;;;;;;;;24.40;54.60;;;;;;5390187;26;19935;-40
2024/04/19 09:45:48;;;;;;;;;;;24.40;54.60;;;;;;5384482;26;19941;-40
2024/04/19 09:48:15;;;;;;;;;;;24.40;54.60;;;;;;5386942;26;19929;-40
2024/04/19 09:50:40;;;;;;;;;;;24.30;54.50;;;;;;5389717;26;20385;-40
2024/04/19 09:53:09;;;;;;;;;;;24.30;54.50;;;;;;5358876;26;20456;-39
2024/04/19 09:55:39;;;;;;;;;;;24.30;54.60;;;;;;5390547;26;19929;-40
2024/04/19 09:58:04;;;;;;;;;;;24.30;54.60;;;;;;5358682;26;19929;-40
2024/04/19 10:00:31;;;;;;;;;;;24.30;54.60;;;;;;5399399;26;20473;-40
2024/04/19 10:02:57;;;;;;;;;;;24.30;54.60;;;;;;5400959;26;19941;-40
2024/04/19 10:05:23;;;;;;;;;;;24.30;54.60;;;;;;5378455;26;19946;-42
2024/04/19 10:07:49;;;;;;;;;;;24.30;54.60;;;;;;5423342;26;19929;-41
2024/04/19 10:10:14;;;;;;;;;;;24.30;54.70;;;;;;5383531;26;19929;-45
2024/04/19 10:12:40;;;;;;;;;;;24.30;54.70;;;;;;5427586;26;19929;-41
2024/04/19 10:15:11;;;;;;;;;;;24.30;54.70;;;;;;5427058;26;19936;-43
2024/04/19 10:17:37;;;;;;;;;;;24.30;54.70;;;;;;5413417;26;19929;-42
2024/04/19 10:20:03;;;;;;;;;;;24.30;54.70;;;;;;5426708;26;19936;-43
2024/04/19 10:22:29;;;;;;;;;;;24.20;54.70;;;;;;5393684;26;19937;-39
2024/04/19 10:24:59;;;;;;;;;;;24.20;54.70;;;;;;5426632;26;19974;-42
2024/04/19 10:27:25;;;;;;;;;;;24.20;54.70;;;;;;5426453;26;19929;-40
2024/04/19 10:29:51;;;;;;;;;;;24.20;54.70;;;;;;5426900;26;19936;-41
2024/04/19 10:32:18;;;;;;;;;;;24.20;54.80;;;;;;5417043;26;19950;-39
2024/04/19 10:34:44;;;;;;;;;;;24.20;54.80;;;;;;5426452;26;19936;-38
2024/04/19 10:37:11;;;;;;;;;;;24.20;54.80;;;;;;5426744;26;19973;-38
2024/04/19 10:39:36;;;;;;;;;;;24.20;54.80;;;;;;5426052;26;19941;-38
2024/04/19 10:42:02;;;;;;;;;;;24.20;54.80;;;;;;5418579;26;19929;-38
2024/04/19 10:44:30;;;;;;;;;;;24.10;54.80;;;;;;5425614;26;19967;-37
2024/04/19 10:46:57;;;;;;;;;;;24.10;54.80;;;;;;5426735;26;19936;-36
2024/04/19 10:49:24;;;;;;;;;;;24.10;54.80;;;;;;5423900;26;19944;-36
2024/04/19 10:51:50;;;;;;;;;;;24.10;54.90;;;;;;5426537;26;19944;-36
2024/04/19 10:54:16;;;;;;;;;;;24.10;54.90;;;;;;5425770;26;19941;-36
2024/04/19 10:56:42;;;;;;;;;;;24.10;54.80;;;;;;5426952;26;19957;-37
2024/04/19 10:59:08;;;;;;;;;;;24.10;54.90;;;;;;5413740;26;19937;-37
2024/04/19 11:01:35;;;;;;;;;;;24.10;54.90;;;;;;5408749;26;19929;-37
2024/04/19 11:04:00;;;;;;;;;;;24.10;54.90;;;;;;5405200;26;19936;-38
2024/04/19 11:06:27;;;;;;;;;;;24.10;54.90;;;;;;5402616;26;19936;-37
2024/04/19 11:08:53;;;;;;;;;;;24.10;54.90;;;;;;5402509;26;20009;-37
2024/04/19 11:11:19;;;;;;;;;;;24.10;54.90;;;;;;5403932;26;19941;-37
2024/04/19 11:13:45;;;;;;;;;;;24.00;54.90;;;;;;5408155;26;19936;-37
2024/04/19 11:16:11;;;;;;;;;;;24.00;54.90;;;;;;5400805;26;19928;-37
2024/04/19 11:18:37;;;;;;;;;;;24.00;55.00;;;;;;5402529;26;19963;-38
2024/04/19 11:21:03;;;;;;;;;;;24.00;55.00;;;;;;5404603;26;20548;-37
2024/04/19 11:23:29;;;;;;;;;;;24.00;55.00;;;;;;5405095;26;19937;-37
2024/04/19 11:25:55;;;;;;;;;;;24.00;55.00;;;;;;5368293;26;19999;-38
2024/04/19 11:28:21;;;;;;;;;;;24.00;55.00;;;;;;5405273;26;19929;-37
2024/04/19 11:30:46;;;;;;;;;;;24.00;55.10;;;;;;5426190;26;19940;-37
2024/04/19 11:33:12;;;;;;;;;;;24.00;55.10;;;;;;5425416;26;19929;-37
2024/04/19 11:35:41;;;;;;;;;;;24.00;55.10;;;;;;5425805;26;19936;-37
2024/04/19 11:38:11;;;;;;;;;;;24.00;55.10;;;;;;5426362;26;19937;-36
2024/04/19 11:40:36;;;;;;;;;;;24.00;55.10;;;;;;5412514;26;19975;-37
2024/04/19 11:43:02;;;;;;;;;;;24.00;55.20;;;;;;5394994;26;19953;-37
2024/04/19 11:45:28;;;;;;;;;;;23.90;55.10;;;;;;5425041;26;19944;-37
2024/04/19 11:47:57;;;;;;;;;;;23.90;55.10;;;;;;5425981;26;19989;-37
2024/04/19 11:50:23;;;;;;;;;;;23.90;55.10;;;;;;5424819;26;19941;-37
2024/04/19 11:52:49;;;;;;;;;;;23.90;55.10;;;;;;5394599;26;19997;-37
2024/04/19 11:55:14;;;;;;;;;;;23.90;55.20;;;;;;5425090;26;19941;-37
2024/04/19 11:57:42;;;;;;;;;;;23.90;55.20;;;;;;5425932;26;19929;-37
2024/04/19 12:00:08;;;;;;;;;;;23.90;55.20;;;;;;5424567;26;20006;-37
2024/04/19 12:02:34;;;;;;;;;;;23.90;55.20;;;;;;5424756;26;19936;-37
2024/04/19 12:05:00;;;;;;;;;;;23.90;55.20;;;;;;5425647;26;19945;-37
2024/04/19 12:07:25;;;;;;;;;;;23.90;55.20;;;;;;5425683;26;19929;-38
2024/04/19 12:09:51;;;;;;;;;;;23.90;55.20;;;;;;5425848;26;19985;-37
2024/04/19 12:12:19;;;;;;;;;;;23.90;55.30;;;;;;5424902;26;19929;-37
2024/04/19 12:14:48;;;;;;;;;;;23.80;55.30;;;;;;5425346;26;19949;-37
2024/04/19 12:17:14;;;;;;;;;;;23.80;55.30;;;;;;5424317;26;19930;-37
2024/04/19 12:19:40;;;;;;;;;;;23.80;55.30;;;;;;5426532;26;19957;-37
2024/04/19 12:22:06;;;;;;;;;;;23.80;55.30;;;;;;5425597;26;19933;-37
2024/04/19 12:24:36;;;;;;;;;;;23.80;55.30;;;;;;5424952;26;19936;-37
2024/04/19 12:27:04;;;;;;;;;;;23.80;55.40;;;;;;5424936;26;20508;-37
2024/04/19 12:29:30;;;;;;;;;;;23.80;55.40;;;;;;5408637;26;19942;-37
2024/04/19 12:31:56;;;;;;;;;;;23.80;55.40;;;;;;5400021;26;19936;-37
2024/04/19 12:34:22;;;;;;;;;;;23.80;55.40;;;;;;5404029;26;19929;-37
2024/04/19 12:36:48;;;;;;;;;;;23.80;55.50;;;;;;5403245;26;19974;-37
2024/04/19 12:39:14;;;;;;;;;;;23.80;55.50;;;;;;5404402;26;20471;-37
2024/04/19 12:41:42;;;;;;;;;;;23.80;55.50;;;;;;5408272;26;19983;-37
2024/04/19 12:44:08;;;;;;;;;;;23.80;56.10;;;;;;5394190;26;19940;-37
2024/04/19 12:46:36;;;;;;;;;;;23.70;55.50;;;;;;5395641;26;20013;-37
2024/04/19 12:49:03;;;;;;;;;;;23.70;55.50;;;;;;5396166;26;19933;-38
2024/04/19 12:51:30;;;;;;;;;;;23.70;55.50;;;;;;5402571;26;19937;-37
2024/04/19 12:53:56;;;;;;;;;;;23.70;55.50;;;;;;5399887;26;19961;-38
2024/04/19 12:56:22;;;;;;;;;;;23.70;55.50;;;;;;5402061;26;19930;-38
2024/04/19 12:58:51;;;;;;;;;;;23.70;55.50;;;;;;5406796;26;19937;-38
2024/04/19 13:01:18;;;;;;;;;;;23.70;55.60;;;;;;5368775;26;20030;-38
2024/04/19 13:03:44;;;;;;;;;;;23.70;55.50;;;;;;5425023;26;19936;-38
2024/04/19 13:06:10;;;;;;;;;;;23.70;55.60;;;;;;5424358;26;19953;-38
2024/04/19 13:08:36;;;;;;;;;;;23.70;55.60;;;;;;5424943;26;19936;-38
2024/04/19 13:11:02;;;;;;;;;;;23.70;55.60;;;;;;5425025;26;19937;-38
2024/04/19 13:13:46;;;;;;;;;;;23.70;55.60;;;;;;5424502;26;19944;-38
2024/04/19 13:16:11;;;;;;;;;;;23.70;55.70;;;;;;5423995;26;19929;-38
2024/04/19 13:18:37;;;;;;;;;;;23.70;55.70;;;;;;5423983;26;19939;-38
2024/04/19 13:21:03;;;;;;;;;;;23.70;55.70;;;;;;5424898;26;19929;-37
2024/04/19 13:23:29;;;;;;;;;;;23.70;55.70;;;;;;5424166;26;19937;-37
2024/04/19 13:25:55;;;;;;;;;;;23.70;55.70;;;;;;5424242;26;19936;-37
2024/04/19 13:28:21;;;;;;;;;;;23.70;55.70;;;;;;5424273;26;19940;-38
2024/04/19 13:30:47;;;;;;;;;;;23.70;55.70;;;;;;5424074;26;19929;-41
2024/04/19 13:33:13;;;;;;;;;;;23.70;55.70;;;;;;5422753;26;19940;-38
2024/04/19 13:35:39;;;;;;;;;;;23.70;55.70;;;;;;5424813;26;19940;-38
2024/04/19 13:38:04;;;;;;;;;;;23.70;55.70;;;;;;5423992;26;19933;-38
2024/04/19 13:40:30;;;;;;;;;;;23.70;55.70;;;;;;5424216;26;19929;-38
2024/04/19 13:42:56;;;;;;;;;;;23.70;55.70;;;;;;5424798;26;19937;-38
2024/04/19 13:45:22;;;;;;;;;;;23.70;55.70;;;;;;5423859;26;19929;-38
2024/04/19 13:47:49;;;;;;;;;;;23.70;55.80;;;;;;5424195;26;20002;-38
2024/04/19 13:50:15;;;;;;;;;;;23.70;55.80;;;;;;5423945;26;19945;-38
2024/04/19 13:52:40;;;;;;;;;;;23.70;55.80;;;;;;5419900;26;19929;-39
2024/04/19 13:55:08;;;;;;;;;;;23.70;55.80;;;;;;5424627;26;19975;-39
2024/04/19 13:57:35;;;;;;;;;;;23.70;55.80;;;;;;5423496;26;19931;-41
2024/04/19 14:00:01;;;;;;;;;;;23.70;55.80;;;;;;5424068;26;19941;-39
2024/04/19 14:02:27;;;;;;;;;;;23.70;55.80;;;;;;5411496;26;19930;-39
2024/04/19 14:04:52;;;;;;;;;;;23.70;55.80;;;;;;5406319;26;19937;-39
2024/04/19 14:07:18;;;;;;;;;;;23.70;55.80;;;;;;5396673;26;19989;-40
2024/04/19 14:09:45;;;;;;;;;;;23.70;55.80;;;;;;5399978;26;19936;-39
2024/04/19 14:12:11;;;;;;;;;;;23.70;55.80;;;;;;5400008;26;19944;-39
2024/04/19 14:14:37;;;;;;;;;;;23.70;55.80;;;;;;5404681;26;19933;-40
2024/04/19 14:17:04;;;;;;;;;;;23.70;55.80;;;;;;5400028;26;19936;-40